• Join FlightAware (Why Join?)
  • Login
  • US Flag 
09:44PM EDT


 

Airport Tracker/Info


-or-


 

Live Flight TrackerFlight Track Log ✈ N201LP ✈ 12-May-2013 ✈ KPGV - KMTN

Flight Track Log - Related Links

Times and Time Zones

All times are in EDT time to prevent confusion due to time zone crossing. See the N201LP flight status page for this flight to view local times or setup timezone preferences in your user account.

Time Position Orientation Groundspeed Altitude Reporting Facility
EDT Latitude Longitude Course Direction KTS MPH feet Rate Location/Type
04:16PM 35.6989 -77.3339 34° Northeast 149 171 3,600  Level Washington Center
04:17PM 35.7328 -77.3142 25° Northeast 144 166 4,200 600 Climbing Washington Center
04:18PM 35.7642 -77.2942 27° Northeast 132 152 4,900 420 Climbing Washington Center
04:19PM 35.8000 -77.2719 27° Northeast 132 152 5,100 420 Climbing Washington Center
04:20PM 35.8400 -77.2472 27° Northeast 143 165 5,800 660 Climbing Washington Center
04:21PM 35.8717 -77.2247 30° Northeast 138 159 6,400 540 Climbing Washington Center
04:22PM 35.9075 -77.2025 27° Northeast 138 159 6,900 240 Climbing Washington Center
04:23PM 35.9411 -77.1775 31° Northeast 138 159 6,900  Level Washington Center
04:24PM 35.9811 -77.1500 29° Northeast 144 166 7,000  Climbing Washington Center
04:25PM 36.0208 -77.1356 16° North 144 166 6,900  Descending Washington Center
04:26PM 36.0669 -77.1339 North 150 173 7,000  Climbing Washington Center
04:27PM 36.1064 -77.1319 North 150 173 6,900 -60 Descending Washington Center
04:28PM 36.1525 -77.1328 359° North 150 173 6,900 60 Level Washington Center
04:29PM 36.1942 -77.1336 359° North 150 173 7,100  Climbing Washington Center
04:30PM 36.2358 -77.1344 359° North 150 173 6,900 -120 Descending Washington Center
04:31PM 36.2797 -77.1353 359° North 150 173 6,900  Level Washington Center
04:32PM 36.3233 -77.1361 359° North 150 173 6,900  Level Washington Center
04:33PM 36.3714 -77.1397 357° North 155 178 6,900  Level Washington Center
04:34PM 36.4047 -77.1431 355° North 158 182 6,900  Level Washington Center
04:34PM 36.4069 -77.1406 42° Northeast 162 186 6,900 -240 Level Washington Center
04:35PM 36.4256 -77.1433 353° North 161 185 6,800 60 Descending Washington Center
04:35PM 36.4569 -77.1414 North 162 186 7,000 60 Climbing Washington Center
04:36PM 36.4672 -77.1442 348° North 152 175 6,900 60 Descending Washington Center
04:36PM 36.5008 -77.1422 North 157 181 7,100 60 Climbing Washington Center
04:37PM 36.5153 -77.1453 350° North 150 173 7,000 -120 Descending Washington Center
04:37PM 36.5383 -77.1406 North 157 181 7,000  Level Washington Center
04:38PM 36.5592 -77.1433 354° North 152 175 7,000  Level Washington Center
04:38PM 36.5822 -77.1386 North 157 181 7,000  Level Washington Center
04:39PM 36.6239 -77.1422 356° North 157 181 7,000  Level Washington Center
04:40PM 36.6467 -77.1425 359° North 157 181 7,000  Level Washington Center
04:40PM 36.6697 -77.1378 North 157 181 7,000  Level Washington Center
04:41PM 36.6886 -77.1408 353° North 158 182 7,000 60 Level Washington Center
04:41PM 36.7136 -77.1361 North 157 181 7,100 -120 Climbing Washington Center
04:42PM 36.7322 -77.1392 353° North 160 184 6,900  Descending Washington Center
04:42PM 36.7553 -77.1369 North 157 181 7,100 60 Climbing Washington Center
04:43PM 36.7761 -77.1375 359° North 155 178 7,000  Descending Washington Center
04:43PM 36.8011 -77.1353 North 157 181 7,100  Climbing Washington Center
04:44PM 36.8219 -77.1383 353° North 155 178 7,000 -60 Descending Washington Center
04:46PM 36.9333 -77.1167 North 165 190 7,000 -60 Level Potomac TRACON
04:47PM 36.9667 -77.1167 360° North 163 188 6,900 -60 Descending Potomac TRACON
04:48PM 37.0167 -77.1167 360° North 165 190 6,900  Level Potomac TRACON
04:49PM 37.0500 -77.1167 360° North 159 183 6,900  Level Potomac TRACON
04:50PM 37.1000 -77.1167 360° North 155 178 7,000  Climbing Potomac TRACON
04:51PM 37.1500 -77.1000 15° North 162 186 7,000 -60 Level Potomac TRACON
04:52PM 37.2000 -77.1000 360° North 166 191 6,900  Descending Potomac TRACON
04:53PM 37.2333 -77.1000 360° North 156 180 7,000  Climbing Potomac TRACON
04:54PM 37.2833 -77.1167 345° North 153 176 7,000  Level Potomac TRACON
04:55PM 37.3333 -77.1167 360° North 158 182 7,000  Level Potomac TRACON
04:56PM 37.3667 -77.1167 360° North 157 181 7,000 -60 Level Potomac TRACON
04:57PM 37.4167 -77.1000 15° North 171 197 6,900  Descending Potomac TRACON
04:58PM 37.4500 -77.0667 38° Northeast 158 182 7,000  Climbing Potomac TRACON
04:59PM 37.4833 -77.0500 22° Northeast 158 182 7,000  Level Potomac TRACON
05:00PM 37.5333 -77.0333 15° North 162 186 7,000  Level Potomac TRACON
05:01PM 37.5667 -77.0167 22° Northeast 160 184 7,000  Level Potomac TRACON
05:02PM 37.6167 -77.0000 15° North 161 185 7,000  Level Potomac TRACON
05:03PM 37.6500 -76.9833 22° Northeast 162 186 7,000  Level Potomac TRACON
05:04PM 37.7000 -76.9500 28° Northeast 164 189 7,000 -180 Level Potomac TRACON
05:05PM 37.7172 -76.9489 North 162 186 6,800 60 Descending Washington Center
05:06PM 37.7633 -76.9289 19° North 164 189 7,100  Climbing Washington Center
05:07PM 37.8094 -76.9033 24° Northeast 165 190 6,900 -120 Descending Washington Center
05:08PM 37.8514 -76.8883 16° North 164 189 6,900  Level Washington Center
05:09PM 37.8933 -76.8706 18° North 160 184 7,000  Climbing Washington Center
05:10PM 37.9372 -76.8608 10° North 161 185 6,900 -60 Descending Washington Center
05:11PM 37.9792 -76.8406 21° North 165 190 6,900  Level Washington Center
05:12PM 38.0150 -76.7961 44° Northeast 173 199 7,000  Climbing Washington Center
05:13PM 38.0489 -76.7494 47° Northeast 173 199 7,000  Level Washington Center
05:14PM 38.0783 -76.7050 50° Northeast 174 200 7,000  Level Washington Center
05:15PM 38.1203 -76.6739 30° Northeast 174 200 7,000  Level Washington Center
05:16PM 38.1644 -76.6428 29° Northeast 176 203 7,100 -60 Climbing Washington Center
05:17PM 38.2086 -76.6092 31° Northeast 183 211 6,900 -120 Descending Washington Center
05:18PM 38.2483 -76.5806 29° Northeast 174 200 6,900  Level Washington Center
05:19PM 38.2903 -76.5494 30° Northeast 168 193 7,000  Climbing Washington Center
05:20PM 38.3344 -76.5181 29° Northeast 178 205 6,900  Descending Washington Center
05:21PM 38.3764 -76.4842 32° Northeast 168 193 7,000  Climbing Washington Center
05:22PM 38.4183 -76.4503 32° Northeast 174 200 6,900 -60 Descending Washington Center
05:23PM 38.4581 -76.4189 32° Northeast 180 207 6,900  Level Washington Center
05:25PM 38.5333 -76.3500 36° Northeast 177 204 7,000  Climbing Potomac TRACON
05:26PM 38.5667 -76.3167 38° Northeast 178 205 6,900 60 Descending Potomac TRACON
05:27PM 38.6167 -76.3000 15° North 158 182 7,200  Climbing Potomac TRACON
05:29PM 38.7000 -76.2833 North 157 181 6,900 -360 Descending Potomac TRACON
05:31PM 38.7781 -76.2534 17° North  Level FlightAware Approximate
05:33PM 38.8833 -76.2833 333° Northwest 151 174 5,300  Level Potomac TRACON
05:34PM 38.9167 -76.2833 360° North 154 177 5,000 -420 Descending Potomac TRACON
05:36PM 39.0000 -76.3167 343° North 150 173 4,200 -480 Descending Potomac TRACON
05:37PM 39.0500 -76.3333 345° North 154 177 3,700 -540 Descending Potomac TRACON
05:38PM 39.0549 -76.2644 333° Northwest  Level FlightAware Approximate
05:38PM 39.0833 -76.3333 360° North 145 167 3,200  Level Potomac TRACON
05:40PM 39.1687 -76.3124 333° Northwest  Level FlightAware Approximate
05:41PM 39.2000 -76.3500 333° Northwest 132 152 2,100  Level Potomac TRACON
05:43PM 39.2667 -76.3500 360° North 100 115 1,800 -180 Descending Potomac TRACON
05:45PM 39.3167 -76.4000 339° North  Level FlightAware Approximate
05:52PM 39.3257 -76.4138 339° North  Level Estimated
05:53PM 39.3257 -76.4138 339° North  Level Estimated
05:54PM 39.3257 -76.4138 339° North  Level Estimated
05:55PM 39.3257 -76.4138 339° North  Level Estimated
05:56PM 39.3257 -76.4138 339° North  Level Estimated
05:57PM 39.3257 -76.4138 339° North  Level Estimated